Time,TemperatureF,DewpointF,PressureIn,WindDirection,WindDirectionDegrees,WindSpeedMPH,WindSpeedGustMPH,Humidity,HourlyPrecipIn,Conditions,Clouds,dailyrainin,SoftwareType,DateUTC
2013-02-01 00:03:00,73.4,65.8,29.86,WNW,293,1.6,3.6,77,0.00,,,0.00,WUHU216HW,2013-02-01 10:03:00,
2013-02-01 00:08:00,73.4,65.8,29.86,South,180,2.5,3.6,77,0.00,,,0.00,WUHU216HW,2013-02-01 10:08:00,
2013-02-01 00:13:00,73.4,65.8,29.86,SSW,203,2.0,4.3,77,0.00,,,0.00,WUHU216HW,2013-02-01 10:13:00,
2013-02-01 00:18:00,73.4,65.8,29.86,SE,135,2.5,4.3,77,0.00,,,0.00,WUHU216HW,2013-02-01 10:18:00,
2013-02-01 00:23:00,73.4,65.4,29.86,SW,225,1.1,4.0,76,0.00,,,0.00,WUHU216HW,2013-02-01 10:23:00,
2013-02-01 00:28:00,73.3,65.3,29.86,SE,135,2.0,3.8,76,0.00,,,0.00,WUHU216HW,2013-02-01 10:28:00,
2013-02-01 00:33:00,73.4,65.4,29.86,NW,315,0.4,2.9,76,0.00,,,0.00,WUHU216HW,2013-02-01 10:33:00,
2013-02-01 00:38:00,73.3,65.3,29.86,NE,45,0.2,4.0,76,0.00,,,0.00,WUHU216HW,2013-02-01 10:38:00,
2013-02-01 00:43:00,73.1,65.1,29.85,West,270,1.8,4.0,76,0.00,,,0.00,WUHU216HW,2013-02-01 10:43:00,
2013-02-01 00:48:00,72.9,64.9,29.85,SSE,158,1.1,3.8,76,0.00,,,0.00,WUHU216HW,2013-02-01 10:48:00,
2013-02-01 00:53:00,72.7,65.1,29.85,WSW,248,1.3,3.8,77,0.00,,,0.00,WUHU216HW,2013-02-01 10:53:00,
2013-02-01 00:58:00,72.7,65.1,29.85,SSE,158,3.1,3.4,77,0.00,,,0.00,WUHU216HW,2013-02-01 10:58:00,
2013-02-01 01:03:00,72.7,65.1,29.85,SSW,203,3.1,4.7,77,0.00,,,0.00,WUHU216HW,2013-02-01 11:03:00,
2013-02-01 01:08:00,72.7,65.1,29.85,SSW,203,1.1,4.7,77,0.00,,,0.00,WUHU216HW,2013-02-01 11:08:00,
2013-02-01 01:13:00,72.7,65.1,29.85,East,90,0.4,4.3,77,0.00,,,0.00,WUHU216HW,2013-02-01 11:13:00,
2013-02-01 01:18:00,72.7,65.1,29.86,WNW,293,1.8,4.0,77,0.00,,,0.00,WUHU216HW,2013-02-01 11:18:00,
2013-02-01 01:23:00,72.7,65.1,29.85,NNE,23,2.0,5.4,77,0.00,,,0.00,WUHU216HW,2013-02-01 11:23:00,
2013-02-01 01:28:00,72.7,65.1,29.85,ESE,113,0.9,5.4,77,0.00,,,0.00,WUHU216HW,2013-02-01 11:28:00,
2013-02-01 01:33:00,72.7,65.1,29.85,SSE,158,3.4,4.3,77,0.00,,,0.00,WUHU216HW,2013-02-01 11:33:00,
2013-02-01 01:38:00,72.7,65.1,29.85,NW,315,0.9,3.4,77,0.00,,,0.00,WUHU216HW,2013-02-01 11:38:00,
2013-02-01 01:43:00,72.7,65.1,29.85,ENE,68,1.8,3.6,77,0.00,,,0.00,WUHU216HW,2013-02-01 11:43:00,
2013-02-01 01:48:00,72.9,65.3,29.85,North,0,1.8,3.8,77,0.00,,,0.00,WUHU216HW,2013-02-01 11:48:00,
2013-02-01 01:53:00,72.9,65.3,29.85,North,0,0.4,3.8,77,0.00,,,0.00,WUHU216HW,2013-02-01 11:53:00,
2013-02-01 01:58:00,72.7,65.1,29.84,North,0,0.4,3.1,77,0.00,,,0.00,WUHU216HW,2013-02-01 11:58:00,
2013-02-01 02:03:00,72.5,64.9,29.84,ENE,68,0.7,3.1,77,0.00,,,0.00,WUHU216HW,2013-02-01 12:03:00,
2013-02-01 02:08:00,72.4,64.7,29.84,ESE,113,1.1,2.2,77,0.00,,,0.00,WUHU216HW,2013-02-01 12:08:00,
2013-02-01 02:13:00,72.4,64.7,29.84,West,270,0.4,3.6,77,0.00,,,0.00,WUHU216HW,2013-02-01 12:13:00,
2013-02-01 02:18:00,72.4,64.7,29.84,SW,225,1.8,3.6,77,0.00,,,0.00,WUHU216HW,2013-02-01 12:18:00,
2013-02-01 02:23:00,72.4,64.7,29.84,SSE,158,1.8,3.1,77,0.00,,,0.00,WUHU216HW,2013-02-01 12:23:00,
2013-02-01 02:28:00,72.2,63.8,29.84,ENE,68,1.1,3.1,75,0.00,,,0.00,WUHU216HW,2013-02-01 12:28:00,
2013-02-01 02:33:00,72.2,63.8,29.84,NE,45,0.9,3.6,75,0.00,,,0.00,WUHU216HW,2013-02-01 12:33:00,
2013-02-01 02:38:00,72.2,63.8,29.84,North,0,0.9,3.6,75,0.00,,,0.00,WUHU216HW,2013-02-01 12:38:00,
2013-02-01 02:43:00,72.2,63.8,29.84,NNW,338,1.3,3.6,75,0.00,,,0.00,WUHU216HW,2013-02-01 12:43:00,
2013-02-01 02:48:00,72.2,63.8,29.83,SSW,203,1.1,3.6,75,0.00,,,0.00,WUHU216HW,2013-02-01 12:48:00,
2013-02-01 02:53:00,72.4,64.4,29.84,NNE,23,0.9,3.6,76,0.00,,,0.00,WUHU216HW,2013-02-01 12:53:00,
2013-02-01 02:58:00,72.4,64.0,29.84,SSW,203,1.1,4.0,75,0.00,,,0.00,WUHU216HW,2013-02-01 12:58:00,
2013-02-01 03:03:00,72.2,63.5,29.83,NNE,23,1.1,4.0,74,0.00,,,0.00,WUHU216HW,2013-02-01 13:03:00,
2013-02-01 03:08:00,72.4,64.0,29.83,NNE,23,3.1,3.1,75,0.00,,,0.00,WUHU216HW,2013-02-01 13:08:00,
2013-02-01 03:13:00,72.4,64.0,29.83,East,90,1.1,3.4,75,0.00,,,0.00,WUHU216HW,2013-02-01 13:13:00,
2013-02-01 03:18:00,72.4,64.0,29.83,SW,225,1.1,3.4,75,0.00,,,0.00,WUHU216HW,2013-02-01 13:18:00,
2013-02-01 03:23:00,72.2,63.5,29.83,NE,45,1.3,3.4,74,0.00,,,0.00,WUHU216HW,2013-02-01 13:23:00,
2013-02-01 03:28:00,72.2,63.5,29.83,NNE,23,1.1,3.4,74,0.00,,,0.00,WUHU216HW,2013-02-01 13:28:00,
2013-02-01 03:33:00,72.2,63.5,29.83,NW,315,1.8,2.7,74,0.00,,,0.00,WUHU216HW,2013-02-01 13:33:00,
2013-02-01 03:38:00,72.2,63.5,29.83,North,0,0.4,2.7,74,0.00,,,0.00,WUHU216HW,2013-02-01 13:38:00,
2013-02-01 03:43:00,72.2,63.5,29.83,South,180,1.1,3.4,74,0.00,,,0.00,WUHU216HW,2013-02-01 13:43:00,
2013-02-01 03:48:00,72.0,63.3,29.83,NE,45,1.1,3.4,74,0.00,,,0.00,WUHU216HW,2013-02-01 13:48:00,
2013-02-01 03:53:00,71.6,62.9,29.83,South,180,0.7,1.6,74,0.00,,,0.00,WUHU216HW,2013-02-01 13:53:00,
2013-02-01 03:58:00,71.6,62.9,29.83,SSE,158,0.4,1.8,74,0.00,,,0.00,WUHU216HW,2013-02-01 13:58:00,
2013-02-01 04:03:00,71.6,62.9,29.83,NE,45,0.9,1.8,74,0.00,,,0.00,WUHU216HW,2013-02-01 14:03:00,
2013-02-01 04:08:00,71.6,62.9,29.83,NNE,23,0.7,2.0,74,0.00,,,0.00,WUHU216HW,2013-02-01 14:08:00,
2013-02-01 04:13:00,71.5,62.7,29.83,SE,135,1.3,3.1,74,0.00,,,0.00,WUHU216HW,2013-02-01 14:13:00,
2013-02-01 04:18:00,71.5,62.7,29.83,NNE,23,0.7,3.1,74,0.00,,,0.00,WUHU216HW,2013-02-01 14:18:00,
2013-02-01 04:23:00,71.3,62.6,29.83,NNE,23,0.7,2.0,74,0.00,,,0.00,WUHU216HW,2013-02-01 14:23:00,
2013-02-01 04:28:00,71.3,62.6,29.83,ENE,68,1.8,2.0,74,0.00,,,0.00,WUHU216HW,2013-02-01 14:28:00,
2013-02-01 04:33:00,71.3,62.6,29.83,West,270,1.8,2.5,74,0.00,,,0.00,WUHU216HW,2013-02-01 14:33:00,
2013-02-01 04:38:00,71.3,62.6,29.83,SSE,158,3.1,3.1,74,0.00,,,0.00,WUHU216HW,2013-02-01 14:38:00,
2013-02-01 04:43:00,71.3,62.6,29.83,SE,135,0.4,3.1,74,0.00,,,0.00,WUHU216HW,2013-02-01 14:43:00,
2013-02-01 04:48:00,71.3,62.6,29.83,NNW,338,0.9,3.1,74,0.00,,,0.00,WUHU216HW,2013-02-01 14:48:00,
2013-02-01 04:53:00,71.3,62.2,29.83,South,180,2.0,2.7,73,0.00,,,0.00,WUHU216HW,2013-02-01 14:53:00,
2013-02-01 04:58:00,71.3,62.2,29.83,NW,315,0.9,2.7,73,0.00,,,0.00,WUHU216HW,2013-02-01 14:58:00,
2013-02-01 05:03:00,71.3,62.2,29.83,South,180,2.0,4.0,73,0.00,,,0.00,WUHU216HW,2013-02-01 15:03:00,
2013-02-01 05:08:00,71.1,62.0,29.83,NE,45,2.0,4.0,73,0.00,,,0.00,WUHU216HW,2013-02-01 15:08:00,
2013-02-01 05:13:00,71.1,62.0,29.83,SSE,158,0.4,3.8,73,0.00,,,0.00,WUHU216HW,2013-02-01 15:13:00,
2013-02-01 05:18:00,71.3,62.2,29.84,NNW,338,1.8,3.8,73,0.00,,,0.00,WUHU216HW,2013-02-01 15:18:00,
2013-02-01 05:23:00,71.3,62.2,29.84,ENE,68,2.5,3.6,73,0.00,,,0.00,WUHU216HW,2013-02-01 15:23:00,
2013-02-01 05:28:00,71.5,62.4,29.84,ESE,113,2.5,4.3,73,0.00,,,0.00,WUHU216HW,2013-02-01 15:28:00,
2013-02-01 05:33:00,71.6,62.6,29.84,SSW,203,2.5,4.3,73,0.00,,,0.00,WUHU216HW,2013-02-01 15:33:00,
2013-02-01 05:38:00,71.6,62.6,29.84,NNE,23,2.5,3.4,73,0.00,,,0.00,WUHU216HW,2013-02-01 15:38:00,
2013-02-01 05:43:00,71.6,62.6,29.84,SSW,203,2.5,3.6,73,0.00,,,0.00,WUHU216HW,2013-02-01 15:43:00,
2013-02-01 05:48:00,71.6,62.6,29.84,SE,135,2.2,3.6,73,0.00,,,0.00,WUHU216HW,2013-02-01 15:48:00,
2013-02-01 05:53:00,71.8,62.7,29.84,SE,135,2.0,4.3,73,0.00,,,0.00,WUHU216HW,2013-02-01 15:53:00,
2013-02-01 05:58:00,71.8,62.3,29.84,NE,45,0.9,4.3,72,0.00,,,0.00,WUHU216HW,2013-02-01 15:58:00,
2013-02-01 06:03:00,71.6,62.1,29.84,NW,315,1.6,4.7,72,0.00,,,0.00,WUHU216HW,2013-02-01 16:03:00,
2013-02-01 06:08:00,71.6,62.1,29.84,NNE,23,2.2,4.7,72,0.00,,,0.00,WUHU216HW,2013-02-01 16:08:00,
2013-02-01 06:13:00,71.6,62.1,29.84,West,270,3.1,4.0,72,0.00,,,0.00,WUHU216HW,2013-02-01 16:13:00,
2013-02-01 06:18:00,71.6,62.1,29.85,South,180,3.4,4.7,72,0.00,,,0.00,WUHU216HW,2013-02-01 16:18:00,
2013-02-01 06:23:00,71.6,62.1,29.85,NNE,23,1.8,4.7,72,0.00,,,0.00,WUHU216HW,2013-02-01 16:23:00,
2013-02-01 06:28:00,71.6,62.1,29.85,East,90,0.9,4.3,72,0.00,,,0.00,WUHU216HW,2013-02-01 16:28:00,
2013-02-01 06:33:00,71.6,62.1,29.85,SSE,158,0.4,4.3,72,0.00,,,0.00,WUHU216HW,2013-02-01 16:33:00,
2013-02-01 06:38:00,71.6,62.1,29.85,South,180,4.0,4.0,72,0.00,,,0.00,WUHU216HW,2013-02-01 16:38:00,
2013-02-01 06:43:00,71.8,62.3,29.85,NNE,23,1.8,4.0,72,0.00,,,0.00,WUHU216HW,2013-02-01 16:43:00,
2013-02-01 06:48:00,71.8,62.3,29.86,NE,45,1.1,4.7,72,0.00,,,0.00,WUHU216HW,2013-02-01 16:48:00,
2013-02-01 06:53:00,72.0,62.1,29.86,ESE,113,0.9,4.7,71,0.00,,,0.00,WUHU216HW,2013-02-01 16:53:00,
2013-02-01 06:58:00,71.8,61.9,29.86,NE,45,1.3,4.0,71,0.00,,,0.00,WUHU216HW,2013-02-01 16:58:00,
2013-02-01 07:03:00,71.8,61.9,29.86,SE,135,1.3,4.7,71,0.00,,,0.00,WUHU216HW,2013-02-01 17:03:00,
2013-02-01 07:08:00,71.8,61.9,29.86,SE,135,1.1,4.7,71,0.00,,,0.00,WUHU216HW,2013-02-01 17:08:00,
2013-02-01 07:13:00,71.8,61.9,29.86,SSE,158,2.5,4.0,71,0.00,,,0.00,WUHU216HW,2013-02-01 17:13:00,
2013-02-01 07:18:00,72.0,62.1,29.87,ENE,68,4.3,4.3,71,0.00,,,0.00,WUHU216HW,2013-02-01 17:18:00,
2013-02-01 07:23:00,72.0,62.5,29.87,NE,45,1.3,4.7,72,0.00,,,0.00,WUHU216HW,2013-02-01 17:23:00,
2013-02-01 07:28:00,72.0,62.5,29.87,SE,135,0.4,4.7,72,0.00,,,0.00,WUHU216HW,2013-02-01 17:28:00,
2013-02-01 07:33:00,72.0,62.5,29.87,North,0,2.9,3.8,72,0.00,,,0.00,WUHU216HW,2013-02-01 17:33:00,
2013-02-01 07:38:00,72.0,62.5,29.87,SW,225,2.2,4.0,72,0.00,,,0.00,WUHU216HW,2013-02-01 17:38:00,
2013-02-01 07:43:00,72.0,62.5,29.87,SE,135,1.1,4.7,72,0.00,,,0.00,WUHU216HW,2013-02-01 17:43:00,
2013-02-01 07:48:00,72.0,62.5,29.87,SSE,158,1.6,4.7,72,0.00,,,0.00,WUHU216HW,2013-02-01 17:48:00,
2013-02-01 07:53:00,72.0,62.5,29.88,NE,45,3.1,4.0,72,0.00,,,0.00,WUHU216HW,2013-02-01 17:53:00,
2013-02-01 07:58:00,72.0,62.5,29.88,East,90,2.7,4.5,72,0.00,,,0.00,WUHU216HW,2013-02-01 17:58:00,
2013-02-01 08:03:00,72.2,62.6,29.88,SSE,158,0.9,4.5,72,0.00,,,0.00,WUHU216HW,2013-02-01 18:03:00,
2013-02-01 08:08:00,72.2,62.6,29.88,SSE,158,2.5,5.4,72,0.00,,,0.00,WUHU216HW,2013-02-01 18:08:00,
2013-02-01 08:13:00,72.2,62.6,29.88,NW,315,2.9,5.4,72,0.00,,,0.00,WUHU216HW,2013-02-01 18:13:00,
2013-02-01 08:18:00,72.2,62.6,29.88,ESE,113,4.0,5.1,72,0.00,,,0.00,WUHU216HW,2013-02-01 18:18:00,
2013-02-01 08:23:00,72.2,62.6,29.88,West,270,3.4,5.1,72,0.00,,,0.00,WUHU216HW,2013-02-01 18:23:00,
2013-02-01 08:28:00,72.4,62.8,29.88,WNW,293,2.9,5.4,72,0.00,,,0.00,WUHU216HW,2013-02-01 18:28:00,
2013-02-01 08:33:00,72.4,62.5,29.88,NW,315,1.6,5.4,71,0.00,,,0.00,WUHU216HW,2013-02-01 18:33:00,
2013-02-01 08:38:00,72.4,62.5,29.88,West,270,2.0,4.7,71,0.00,,,0.00,WUHU216HW,2013-02-01 18:38:00,
2013-02-01 08:43:00,72.5,62.6,29.88,NW,315,1.1,4.3,71,0.00,,,0.00,WUHU216HW,2013-02-01 18:43:00,
2013-02-01 08:48:00,72.5,62.6,29.89,SW,225,1.8,4.3,71,0.00,,,0.00,WUHU216HW,2013-02-01 18:48:00,
2013-02-01 08:53:00,72.7,62.8,29.89,South,180,2.5,3.8,71,0.00,,,0.00,WUHU216HW,2013-02-01 18:53:00,
2013-02-01 08:58:00,72.7,62.5,29.89,ENE,68,2.5,3.6,70,0.00,,,0.00,WUHU216HW,2013-02-01 18:58:00,
2013-02-01 09:03:00,72.7,62.5,29.89,SE,135,0.7,4.5,70,0.00,,,0.00,WUHU216HW,2013-02-01 19:03:00,
2013-02-01 09:08:00,72.9,62.6,29.89,NW,315,1.8,5.4,70,0.00,,,0.00,WUHU216HW,2013-02-01 19:08:00,
2013-02-01 09:13:00,72.9,62.6,29.89,SSE,158,3.1,6.3,70,0.00,,,0.00,WUHU216HW,2013-02-01 19:13:00,
2013-02-01 09:18:00,72.9,62.6,29.89,NNE,23,0.9,6.3,70,0.00,,,0.00,WUHU216HW,2013-02-01 19:18:00,
2013-02-01 09:23:00,73.1,62.8,29.89,South,180,2.5,4.7,70,0.00,,,0.00,WUHU216HW,2013-02-01 19:23:00,
2013-02-01 09:28:00,73.1,62.8,29.89,SE,135,3.1,3.4,70,0.00,,,0.00,WUHU216HW,2013-02-01 19:28:00,
2013-02-01 09:33:00,73.1,62.8,29.89,West,270,4.0,6.3,70,0.00,,,0.00,WUHU216HW,2013-02-01 19:33:00,
2013-02-01 09:38:00,73.3,63.0,29.90,SSE,158,1.8,6.3,70,0.00,,,0.00,WUHU216HW,2013-02-01 19:38:00,
2013-02-01 09:43:00,73.3,63.0,29.90,ESE,113,1.6,4.9,70,0.00,,,0.00,WUHU216HW,2013-02-01 19:43:00,
2013-02-01 09:48:00,73.4,63.2,29.90,ESE,113,1.6,4.0,70,0.00,,,0.00,WUHU216HW,2013-02-01 19:48:00,
2013-02-01 09:53:00,73.4,63.2,29.90,NW,315,2.9,3.6,70,0.00,,,0.00,WUHU216HW,2013-02-01 19:53:00,
2013-02-01 09:58:00,73.4,63.2,29.90,SSE,158,2.7,3.4,70,0.00,,,0.00,WUHU216HW,2013-02-01 19:58:00,
2013-02-01 10:03:00,73.4,63.2,29.90,NNE,23,3.4,3.4,70,0.00,,,0.00,WUHU216HW,2013-02-01 20:03:00,
2013-02-01 10:08:00,73.6,63.4,29.90,SSE,158,1.8,3.8,70,0.00,,,0.00,WUHU216HW,2013-02-01 20:08:00,
2013-02-01 10:13:00,73.6,63.7,29.90,WNW,293,3.4,4.5,71,0.00,,,0.00,WUHU216HW,2013-02-01 20:13:00,
2013-02-01 10:18:00,73.4,63.5,29.90,ESE,113,3.8,4.5,71,0.00,,,0.00,WUHU216HW,2013-02-01 20:18:00,
2013-02-01 10:23:00,73.4,63.5,29.90,ESE,113,3.4,4.3,71,0.00,,,0.00,WUHU216HW,2013-02-01 20:23:00,
2013-02-01 10:28:00,73.4,63.5,29.90,East,90,5.1,5.1,71,0.00,,,0.00,WUHU216HW,2013-02-01 20:28:00,
2013-02-01 10:33:00,73.6,63.7,29.90,NW,315,2.5,5.1,71,0.00,,,0.00,WUHU216HW,2013-02-01 20:33:00,
2013-02-01 10:38:00,73.6,63.7,29.90,North,0,4.0,6.9,71,0.00,,,0.00,WUHU216HW,2013-02-01 20:38:00,
2013-02-01 10:43:00,73.6,63.7,29.90,ESE,113,5.8,7.8,71,0.00,,,0.00,WUHU216HW,2013-02-01 20:43:00,
2013-02-01 10:48:00,73.4,63.2,29.91,North,0,4.7,7.8,70,0.00,,,0.00,WUHU216HW,2013-02-01 20:48:00,
2013-02-01 10:53:00,73.4,63.2,29.90,NE,45,3.6,7.6,70,0.00,,,0.00,WUHU216HW,2013-02-01 20:53:00,
2013-02-01 10:58:00,73.4,63.2,29.90,NNE,23,4.0,5.4,70,0.00,,,0.00,WUHU216HW,2013-02-01 20:58:00,
2013-02-01 11:03:00,73.4,63.2,29.90,ENE,68,3.4,5.8,70,0.00,,,0.00,WUHU216HW,2013-02-01 21:03:00,
2013-02-01 11:08:00,73.6,63.4,29.90,NNE,23,5.1,5.8,70,0.00,,,0.00,WUHU216HW,2013-02-01 21:08:00,
2013-02-01 11:13:00,73.8,63.6,29.90,SSE,158,2.0,5.4,70,0.00,,,0.00,WUHU216HW,2013-02-01 21:13:00,
2013-02-01 11:18:00,73.8,63.6,29.90,SE,135,2.9,5.4,70,0.00,,,0.00,WUHU216HW,2013-02-01 21:18:00,
2013-02-01 11:23:00,73.8,63.6,29.90,SSW,203,1.1,3.4,70,0.00,,,0.00,WUHU216HW,2013-02-01 21:23:00,
2013-02-01 11:28:00,73.8,63.6,29.90,SE,135,3.4,4.3,70,0.00,,,0.00,WUHU216HW,2013-02-01 21:28:00,
2013-02-01 11:33:00,73.8,63.6,29.90,SE,135,2.5,4.3,70,0.00,,,0.00,WUHU216HW,2013-02-01 21:33:00,
2013-02-01 11:38:00,73.8,63.6,29.90,West,270,2.7,3.8,70,0.00,,,0.00,WUHU216HW,2013-02-01 21:38:00,
2013-02-01 11:43:00,73.8,63.6,29.90,NNE,23,5.6,5.6,70,0.00,,,0.00,WUHU216HW,2013-02-01 21:43:00,
2013-02-01 11:48:00,73.8,63.6,29.90,ESE,113,2.5,6.7,70,0.00,,,0.00,WUHU216HW,2013-02-01 21:48:00,
2013-02-01 11:53:00,73.6,63.4,29.90,NNE,23,3.4,6.7,70,0.00,,,0.00,WUHU216HW,2013-02-01 21:53:00,
2013-02-01 11:58:00,73.6,63.4,29.90,NE,45,3.4,6.0,70,0.00,,,0.00,WUHU216HW,2013-02-01 21:58:00,
2013-02-01 12:03:00,73.6,63.4,29.90,North,0,6.7,6.7,70,0.00,,,0.00,WUHU216HW,2013-02-01 22:03:00,
2013-02-01 12:08:00,73.4,63.2,29.89,ENE,68,1.1,6.7,70,0.00,,,0.00,WUHU216HW,2013-02-01 22:08:00,
2013-02-01 12:13:00,73.6,63.4,29.89,SE,135,2.7,6.7,70,0.00,,,0.00,WUHU216HW,2013-02-01 22:13:00,
2013-02-01 12:18:00,73.6,63.4,29.89,North,0,2.2,3.8,70,0.00,,,0.00,WUHU216HW,2013-02-01 22:18:00,
2013-02-01 12:23:00,73.8,63.9,29.89,NE,45,2.5,5.4,71,0.00,,,0.00,WUHU216HW,2013-02-01 22:23:00,
2013-02-01 12:28:00,73.8,63.6,29.88,NE,45,4.7,6.0,70,0.00,,,0.00,WUHU216HW,2013-02-01 22:28:00,
2013-02-01 12:33:00,73.8,63.9,29.88,NE,45,1.1,6.0,71,0.00,,,0.00,WUHU216HW,2013-02-01 22:33:00,
2013-02-01 12:38:00,73.8,63.9,29.88,SSE,158,1.6,4.7,71,0.00,,,0.00,WUHU216HW,2013-02-01 22:38:00,
2013-02-01 12:43:00,74.0,64.1,29.88,NNE,23,2.2,2.9,71,0.00,,,0.00,WUHU216HW,2013-02-01 22:43:00,
2013-02-01 12:48:00,74.0,64.5,29.88,SSW,203,2.5,3.1,72,0.00,,,0.00,WUHU216HW,2013-02-01 22:48:00,
2013-02-01 12:53:00,74.0,64.5,29.88,SSW,203,1.1,3.8,72,0.00,,,0.00,WUHU216HW,2013-02-01 22:53:00,
2013-02-01 12:58:00,74.0,64.5,29.88,ESE,113,1.6,4.5,72,0.00,,,0.00,WUHU216HW,2013-02-01 22:58:00,
2013-02-01 13:03:00,74.0,64.5,29.88,SSW,203,1.1,4.5,72,0.00,,,0.00,WUHU216HW,2013-02-01 23:03:00,
2013-02-01 13:08:00,74.2,64.6,29.87,SE,135,2.5,3.4,72,0.00,,,0.00,WUHU216HW,2013-02-01 23:08:00,
2013-02-01 13:13:00,74.2,64.6,29.87,SSW,203,1.3,3.4,72,0.00,,,0.00,WUHU216HW,2013-02-01 23:13:00,
2013-02-01 13:18:00,74.3,64.4,29.87,South,180,2.7,4.5,71,0.00,,,0.00,WUHU216HW,2013-02-01 23:18:00,
2013-02-01 13:23:00,74.3,64.4,29.86,East,90,2.0,4.5,71,0.00,,,0.00,WUHU216HW,2013-02-01 23:23:00,
2013-02-01 13:28:00,74.5,64.5,29.86,SSW,203,2.2,4.0,71,0.00,,,0.00,WUHU216HW,2013-02-01 23:28:00,
2013-02-01 13:33:00,74.5,64.5,29.86,WSW,248,2.5,3.4,71,0.00,,,0.00,WUHU216HW,2013-02-01 23:33:00,
2013-02-01 13:38:00,74.5,64.5,29.86,NE,45,7.2,7.2,71,0.00,,,0.00,WUHU216HW,2013-02-01 23:38:00,
2013-02-01 13:43:00,74.5,64.2,29.86,NW,315,2.7,7.2,70,0.00,,,0.00,WUHU216HW,2013-02-01 23:43:00,
2013-02-01 13:48:00,74.5,64.2,29.86,NE,45,2.7,7.2,70,0.00,,,0.00,WUHU216HW,2013-02-01 23:48:00,
2013-02-01 13:53:00,74.3,64.0,29.86,ENE,68,6.0,6.0,70,0.00,,,0.00,WUHU216HW,2013-02-01 23:53:00,
2013-02-01 13:58:00,74.2,63.4,29.85,NNE,23,5.8,6.0,69,0.00,,,0.00,WUHU216HW,2013-02-01 23:58:00,
2013-02-01 14:03:00,74.2,63.8,29.85,East,90,0.9,6.0,70,0.00,,,0.00,WUHU216HW,2013-02-02 00:03:00,
2013-02-01 14:08:00,74.3,64.0,29.85,ESE,113,2.2,5.8,70,0.00,,,0.00,WUHU216HW,2013-02-02 00:08:00,
2013-02-01 14:13:00,74.5,64.2,29.85,WNW,293,2.9,6.3,70,0.00,,,0.00,WUHU216HW,2013-02-02 00:13:00,
2013-02-01 14:18:00,74.5,63.7,29.85,NE,45,2.2,6.3,69,0.00,,,0.00,WUHU216HW,2013-02-02 00:18:00,
2013-02-01 14:23:00,74.3,63.5,29.85,SE,135,1.6,6.3,69,0.00,,,0.00,WUHU216HW,2013-02-02 00:23:00,
2013-02-01 14:28:00,74.3,63.1,29.85,SE,135,2.5,6.0,68,0.00,,,0.00,WUHU216HW,2013-02-02 00:28:00,
2013-02-01 14:33:00,74.5,63.3,29.85,NNE,23,2.5,4.0,68,0.00,,,0.00,WUHU216HW,2013-02-02 00:33:00,
2013-02-01 14:38:00,74.7,63.9,29.85,ESE,113,1.3,3.4,69,0.00,,,0.00,WUHU216HW,2013-02-02 00:38:00,
2013-02-01 14:43:00,74.9,64.1,29.85,NNE,23,1.1,2.7,69,0.00,,,0.00,WUHU216HW,2013-02-02 00:43:00,
2013-02-01 14:48:00,74.9,64.1,29.84,NE,45,2.2,2.7,69,0.00,,,0.00,WUHU216HW,2013-02-02 00:48:00,
2013-02-01 14:53:00,74.9,64.1,29.84,ESE,113,2.0,3.4,69,0.00,,,0.00,WUHU216HW,2013-02-02 00:53:00,
2013-02-01 14:58:00,74.7,63.9,29.85,SE,135,1.1,3.4,69,0.00,,,0.00,WUHU216HW,2013-02-02 00:58:00,
2013-02-01 15:03:00,74.7,63.9,29.84,North,0,1.6,2.9,69,0.00,,,0.00,WUHU216HW,2013-02-02 01:03:00,
2013-02-01 15:08:00,74.7,63.9,29.84,NNE,23,0.9,4.7,69,0.00,,,0.00,WUHU216HW,2013-02-02 01:08:00,
2013-02-01 15:13:00,74.5,63.7,29.84,ESE,113,1.8,4.7,69,0.00,,,0.00,WUHU216HW,2013-02-02 01:13:00,
2013-02-01 15:18:00,74.5,63.7,29.84,WSW,248,1.1,2.5,69,0.00,,,0.00,WUHU216HW,2013-02-02 01:18:00,
2013-02-01 15:23:00,74.5,63.7,29.84,ESE,113,2.5,2.5,69,0.00,,,0.00,WUHU216HW,2013-02-02 01:23:00,
2013-02-01 15:28:00,74.5,63.7,29.84,North,0,1.8,2.9,69,0.00,,,0.00,WUHU216HW,2013-02-02 01:28:00,
2013-02-01 15:33:00,74.5,63.7,29.84,East,90,1.6,3.4,69,0.00,,,0.00,WUHU216HW,2013-02-02 01:33:00,
2013-02-01 15:38:00,74.7,63.9,29.83,ESE,113,0.9,3.4,69,0.00,,,0.00,WUHU216HW,2013-02-02 01:38:00,
2013-02-01 15:43:00,74.9,64.1,29.83,NNW,338,1.1,2.9,69,0.00,,,0.00,WUHU216HW,2013-02-02 01:43:00,
2013-02-01 15:48:00,74.9,64.1,29.83,WSW,248,2.0,3.4,69,0.00,,,0.00,WUHU216HW,2013-02-02 01:48:00,
2013-02-01 15:53:00,74.9,64.1,29.83,North,0,3.8,3.8,69,0.00,,,0.00,WUHU216HW,2013-02-02 01:53:00,
2013-02-01 15:58:00,74.9,64.1,29.83,NW,315,1.1,3.8,69,0.00,,,0.00,WUHU216HW,2013-02-02 01:58:00,
2013-02-01 16:03:00,75.1,64.2,29.83,SE,135,1.1,2.5,69,0.00,,,0.00,WUHU216HW,2013-02-02 02:03:00,
2013-02-01 16:08:00,75.1,64.6,29.83,SSE,158,1.8,2.2,70,0.00,,,0.00,WUHU216HW,2013-02-02 02:08:00,
2013-02-01 16:13:00,75.1,64.6,29.83,ESE,113,0.9,2.5,70,0.00,,,0.00,WUHU216HW,2013-02-02 02:13:00,
2013-02-01 16:18:00,74.9,64.4,29.83,NNE,23,1.1,2.5,70,0.00,,,0.00,WUHU216HW,2013-02-02 02:18:00,
2013-02-01 16:23:00,74.9,64.4,29.83,North,0,1.8,2.5,70,0.00,,,0.00,WUHU216HW,2013-02-02 02:23:00,
2013-02-01 16:28:00,74.9,64.4,29.83,SSE,158,0.7,2.5,70,0.00,,,0.00,WUHU216HW,2013-02-02 02:28:00,
2013-02-01 16:33:00,74.9,64.4,29.83,SE,135,0.2,1.8,70,0.00,,,0.00,WUHU216HW,2013-02-02 02:33:00,
2013-02-01 16:38:00,74.9,64.9,29.83,SE,135,2.2,2.2,71,0.00,,,0.00,WUHU216HW,2013-02-02 02:38:00,
2013-02-01 16:43:00,74.9,64.9,29.83,North,0,2.2,2.2,71,0.00,,,0.00,WUHU216HW,2013-02-02 02:43:00,
2013-02-01 16:48:00,74.9,64.9,29.83,NNW,338,1.1,2.5,71,0.00,,,0.00,WUHU216HW,2013-02-02 02:48:00,
2013-02-01 16:53:00,74.9,64.9,29.83,WSW,248,1.8,2.5,71,0.00,,,0.00,WUHU216HW,2013-02-02 02:53:00,
2013-02-01 16:58:00,74.9,64.9,29.83,SSW,203,1.6,2.7,71,0.00,,,0.00,WUHU216HW,2013-02-02 02:58:00,
2013-02-01 17:03:00,74.9,64.9,29.83,NW,315,1.6,3.1,71,0.00,,,0.00,WUHU216HW,2013-02-02 03:03:00,
2013-02-01 17:08:00,74.7,64.7,29.83,NE,45,3.1,3.8,71,0.00,,,0.00,WUHU216HW,2013-02-02 03:08:00,
2013-02-01 17:13:00,74.7,64.7,29.84,South,180,1.1,3.8,71,0.00,,,0.00,WUHU216HW,2013-02-02 03:13:00,
2013-02-01 17:18:00,74.5,64.5,29.84,SSE,158,1.6,3.4,71,0.00,,,0.00,WUHU216HW,2013-02-02 03:18:00,
2013-02-01 17:23:00,74.5,64.5,29.84,SE,135,1.6,3.4,71,0.00,,,0.00,WUHU216HW,2013-02-02 03:23:00,
2013-02-01 17:28:00,74.5,64.5,29.84,ENE,68,1.3,2.7,71,0.00,,,0.00,WUHU216HW,2013-02-02 03:28:00,
2013-02-01 17:33:00,74.5,64.5,29.84,ENE,68,2.0,3.1,71,0.00,,,0.00,WUHU216HW,2013-02-02 03:33:00,
2013-02-01 17:38:00,74.5,64.5,29.85,East,90,2.0,3.1,71,0.00,,,0.00,WUHU216HW,2013-02-02 03:38:00,
2013-02-01 17:43:00,74.5,64.5,29.84,NE,45,2.0,2.5,71,0.00,,,0.00,WUHU216HW,2013-02-02 03:43:00,
2013-02-01 17:48:00,74.5,64.5,29.85,SE,135,2.9,2.9,71,0.00,,,0.00,WUHU216HW,2013-02-02 03:48:00,
2013-02-01 17:53:00,74.7,64.7,29.85,SSW,203,2.5,2.9,71,0.00,,,0.00,WUHU216HW,2013-02-02 03:53:00,
2013-02-01 17:58:00,74.7,64.7,29.85,SSE,158,0.9,2.9,71,0.00,,,0.00,WUHU216HW,2013-02-02 03:58:00,
2013-02-01 18:03:00,74.7,64.7,29.85,NE,45,2.2,2.7,71,0.00,,,0.00,WUHU216HW,2013-02-02 04:03:00,
2013-02-01 18:08:00,74.7,65.1,29.85,NNE,23,1.8,2.7,72,0.00,,,0.00,WUHU216HW,2013-02-02 04:08:00,
2013-02-01 18:13:00,74.7,65.1,29.85,East,90,3.1,3.1,72,0.00,,,0.00,WUHU216HW,2013-02-02 04:13:00,
2013-02-01 18:18:00,74.7,65.1,29.85,NNE,23,0.4,3.1,72,0.00,,,0.00,WUHU216HW,2013-02-02 04:18:00,
2013-02-01 18:23:00,74.7,65.1,29.85,SW,225,2.7,4.0,72,0.00,,,0.00,WUHU216HW,2013-02-02 04:23:00,
2013-02-01 18:28:00,74.7,64.7,29.85,South,180,1.1,4.0,71,0.00,,,0.00,WUHU216HW,2013-02-02 04:28:00,
2013-02-01 18:33:00,74.7,65.1,29.85,SSE,158,2.2,3.4,72,0.00,,,0.00,WUHU216HW,2013-02-02 04:33:00,
2013-02-01 18:38:00,74.7,65.1,29.85,South,180,3.1,3.4,72,0.00,,,0.00,WUHU216HW,2013-02-02 04:38:00,
2013-02-01 18:43:00,74.7,65.1,29.86,ESE,113,1.1,3.4,72,0.00,,,0.00,WUHU216HW,2013-02-02 04:43:00,
2013-02-01 18:48:00,74.7,65.1,29.86,NE,45,1.6,3.4,72,0.00,,,0.00,WUHU216HW,2013-02-02 04:48:00,
2013-02-01 18:53:00,74.7,64.7,29.86,SSW,203,2.5,4.3,71,0.00,,,0.00,WUHU216HW,2013-02-02 04:53:00,
2013-02-01 18:58:00,74.7,64.7,29.86,SSW,203,2.2,4.3,71,0.00,,,0.00,WUHU216HW,2013-02-02 04:58:00,
2013-02-01 19:00:00,74.7,64.7,29.86,South,180,3.4,4.3,71,0.00,,,0.00,WUHU216HW,2013-02-02 05:00:00,
2013-02-01 19:01:00,74.7,64.7,29.86,North,0,4.0,4.3,71,0.00,,,0.00,WUHU216HW,2013-02-02 05:01:00,
2013-02-01 19:06:00,74.9,64.9,29.86,ENE,68,2.5,4.9,71,0.00,,,0.00,WUHU216HW,2013-02-02 05:06:00,
2013-02-01 19:11:00,74.9,64.9,29.87,ENE,68,3.4,4.9,71,0.00,,,0.00,WUHU216HW,2013-02-02 05:11:00,
2013-02-01 19:16:00,74.9,64.9,29.87,East,90,2.0,4.0,71,0.00,,,0.00,WUHU216HW,2013-02-02 05:16:00,
2013-02-01 19:21:00,74.9,64.9,29.87,SE,135,3.1,4.0,71,0.00,,,0.00,WUHU216HW,2013-02-02 05:21:00,
2013-02-01 19:26:00,74.9,64.9,29.87,South,180,2.9,5.6,71,0.00,,,0.00,WUHU216HW,2013-02-02 05:26:00,
2013-02-01 19:31:00,74.7,64.7,29.87,SE,135,1.8,5.6,71,0.00,,,0.00,WUHU216HW,2013-02-02 05:31:00,
2013-02-01 19:36:00,74.7,64.7,29.87,East,90,3.4,4.7,71,0.00,,,0.00,WUHU216HW,2013-02-02 05:36:00,
2013-02-01 19:41:00,74.7,64.7,29.88,NNE,23,4.7,6.3,71,0.00,,,0.00,WUHU216HW,2013-02-02 05:41:00,
2013-02-01 19:46:00,74.7,64.4,29.88,North,0,7.4,7.4,70,0.00,,,0.00,WUHU216HW,2013-02-02 05:46:00,
2013-02-01 19:51:00,74.5,64.2,29.88,North,0,3.4,7.4,70,0.00,,,0.00,WUHU216HW,2013-02-02 05:51:00,
2013-02-01 19:56:00,74.5,64.2,29.88,South,180,2.2,7.4,70,0.00,,,0.00,WUHU216HW,2013-02-02 05:56:00,
2013-02-01 20:01:00,74.5,64.2,29.88,East,90,2.5,6.9,70,0.00,,,0.00,WUHU216HW,2013-02-02 06:01:00,
2013-02-01 20:06:00,74.3,64.0,29.88,NNW,338,9.2,9.2,70,0.00,,,0.00,WUHU216HW,2013-02-02 06:06:00,
2013-02-01 20:11:00,74.0,63.6,29.88,NNE,23,2.9,9.2,70,0.00,,,0.00,WUHU216HW,2013-02-02 06:11:00,
2013-02-01 20:17:00,73.8,63.9,29.88,North,0,2.9,9.2,71,0.00,,,0.00,WUHU216HW,2013-02-02 06:17:00,
2013-02-01 20:21:00,73.6,63.7,29.89,NW,315,3.4,9.6,71,0.00,,,0.00,WUHU216HW,2013-02-02 06:21:00,
2013-02-01 20:26:00,73.4,63.5,29.88,NE,45,2.5,9.6,71,0.00,,,0.00,WUHU216HW,2013-02-02 06:26:00,
2013-02-01 20:31:00,73.4,63.5,29.88,ENE,68,4.5,8.5,71,0.00,,,0.00,WUHU216HW,2013-02-02 06:31:00,
2013-02-01 20:36:00,73.3,63.4,29.89,SSW,203,5.4,7.6,71,0.00,,,0.00,WUHU216HW,2013-02-02 06:36:00,
2013-02-01 20:41:00,73.4,63.5,29.89,NNW,338,4.0,7.6,71,0.00,,,0.00,WUHU216HW,2013-02-02 06:41:00,
2013-02-01 20:46:00,73.4,63.5,29.88,NNW,338,6.3,8.5,71,0.00,,,0.00,WUHU216HW,2013-02-02 06:46:00,
2013-02-01 20:51:00,73.4,63.5,29.89,NE,45,3.4,8.5,71,0.00,,,0.00,WUHU216HW,2013-02-02 06:51:00,
2013-02-01 20:56:00,73.4,63.5,29.89,NNW,338,5.4,8.5,71,0.00,,,0.00,WUHU216HW,2013-02-02 06:56:00,
2013-02-01 21:02:00,73.3,63.4,29.89,NNW,338,4.0,7.4,71,0.00,,,0.00,WUHU216HW,2013-02-02 07:02:00,
2013-02-01 21:06:00,73.1,63.2,29.89,South,180,4.0,8.1,71,0.00,,,0.00,WUHU216HW,2013-02-02 07:06:00,
2013-02-01 21:11:00,73.1,63.5,29.89,North,0,7.8,8.7,72,0.00,,,0.00,WUHU216HW,2013-02-02 07:11:00,
2013-02-01 21:16:00,72.9,63.4,29.89,NNE,23,4.0,9.2,72,0.00,,,0.00,WUHU216HW,2013-02-02 07:16:00,
2013-02-01 21:21:00,72.7,63.2,29.89,NNE,23,2.7,9.8,72,0.00,,,0.00,WUHU216HW,2013-02-02 07:21:00,
2013-02-01 21:26:00,72.7,63.2,29.89,NNE,23,4.0,9.8,72,0.00,,,0.00,WUHU216HW,2013-02-02 07:26:00,
2013-02-01 21:31:00,72.9,63.8,29.89,NNW,338,5.4,7.6,73,0.00,,,0.00,WUHU216HW,2013-02-02 07:31:00,
2013-02-01 21:36:00,72.7,63.2,29.89,NNE,23,9.2,9.2,72,0.00,,,0.00,WUHU216HW,2013-02-02 07:36:00,
2013-02-01 21:41:00,72.7,63.6,29.89,NNE,23,6.9,9.2,73,0.00,,,0.00,WUHU216HW,2013-02-02 07:41:00,
2013-02-01 21:46:00,72.7,63.6,29.89,North,0,6.0,9.4,73,0.00,,,0.00,WUHU216HW,2013-02-02 07:46:00,
2013-02-01 21:51:00,72.9,63.8,29.89,NNE,23,3.8,9.4,73,0.00,,,0.00,WUHU216HW,2013-02-02 07:51:00,
2013-02-01 21:56:00,72.9,63.8,29.89,NW,315,3.4,9.8,73,0.00,,,0.00,WUHU216HW,2013-02-02 07:56:00,
2013-02-01 22:01:00,73.1,64.0,29.89,NNE,23,5.1,9.8,73,0.00,,,0.00,WUHU216HW,2013-02-02 08:01:00,
2013-02-01 22:06:00,72.9,63.8,29.89,North,0,5.4,8.3,73,0.00,,,0.00,WUHU216HW,2013-02-02 08:06:00,
2013-02-01 22:11:00,72.9,64.2,29.88,NE,45,6.9,8.5,74,0.00,,,0.00,WUHU216HW,2013-02-02 08:11:00,
2013-02-01 22:16:00,72.9,64.2,29.89,NNE,23,4.0,8.7,74,0.00,,,0.00,WUHU216HW,2013-02-02 08:16:00,
2013-02-01 22:21:00,72.9,64.2,29.88,North,0,7.6,8.7,74,0.00,,,0.00,WUHU216HW,2013-02-02 08:21:00,
2013-02-01 22:26:00,72.9,64.2,29.88,NNE,23,6.9,8.3,74,0.00,,,0.00,WUHU216HW,2013-02-02 08:26:00,
2013-02-01 22:31:00,72.9,64.2,29.88,North,0,5.4,10.3,74,0.00,,,0.00,WUHU216HW,2013-02-02 08:31:00,
2013-02-01 22:36:00,72.7,64.0,29.89,North,0,6.0,10.3,74,0.00,,,0.00,WUHU216HW,2013-02-02 08:36:00,
2013-02-01 22:41:00,72.7,64.0,29.88,East,90,6.3,9.4,74,0.00,,,0.00,WUHU216HW,2013-02-02 08:41:00,
2013-02-01 22:46:00,72.7,64.0,29.88,SSW,203,4.5,9.6,74,0.00,,,0.00,WUHU216HW,2013-02-02 08:46:00,
2013-02-01 22:51:00,72.5,63.8,29.88,SSW,203,1.8,9.6,74,0.00,,,0.00,WUHU216HW,2013-02-02 08:51:00,
2013-02-01 22:56:00,72.7,64.0,29.88,NNE,23,2.9,8.7,74,0.00,,,0.00,WUHU216HW,2013-02-02 08:56:00,
2013-02-01 23:01:00,72.5,64.2,29.88,SE,135,4.7,8.7,75,0.00,,,0.00,WUHU216HW,2013-02-02 09:01:00,
2013-02-01 23:06:00,72.7,64.4,29.88,NE,45,5.4,7.8,75,0.00,,,0.00,WUHU216HW,2013-02-02 09:06:00,
2013-02-01 23:11:00,72.5,64.2,29.88,NE,45,4.5,8.3,75,0.00,,,0.00,WUHU216HW,2013-02-02 09:11:00,
2013-02-01 23:16:00,72.5,64.2,29.88,NNW,338,4.3,8.3,75,0.00,,,0.00,WUHU216HW,2013-02-02 09:16:00,
2013-02-01 23:21:00,72.4,64.0,29.88,NNW,338,6.7,8.5,75,0.00,,,0.00,WUHU216HW,2013-02-02 09:21:00,
2013-02-01 23:26:00,72.4,63.6,29.87,North,0,2.5,10.5,74,0.00,,,0.00,WUHU216HW,2013-02-02 09:26:00,
2013-02-01 23:31:00,72.4,63.6,29.88,North,0,4.5,10.5,74,0.00,,,0.00,WUHU216HW,2013-02-02 09:31:00,
2013-02-01 23:36:00,72.4,63.6,29.87,East,90,2.5,9.8,74,0.00,,,0.00,WUHU216HW,2013-02-02 09:36:00,
2013-02-01 23:41:00,72.4,63.6,29.87,NNE,23,2.5,7.2,74,0.00,,,0.00,WUHU216HW,2013-02-02 09:41:00,
2013-02-01 23:46:00,72.4,63.6,29.87,North,0,4.9,6.9,74,0.00,,,0.00,WUHU216HW,2013-02-02 09:46:00,
2013-02-01 23:51:00,72.4,63.6,29.87,NNE,23,4.9,8.7,74,0.00,,,0.00,WUHU216HW,2013-02-02 09:51:00,
2013-02-01 23:56:00,72.4,63.6,29.87,North,0,2.5,8.7,74,0.00,,,0.00,WUHU216HW,2013-02-02 09:56:00,